sensor_id;sensor_type;location;lat;lon;timestamp;temperature;humidity
39889;DHT22;25563;50.844;4.308;2022-10-31T00:00:21;16.80;99.90
39889;DHT22;25563;50.844;4.308;2022-10-31T00:02:47;16.80;99.90
39889;DHT22;25563;50.844;4.308;2022-10-31T00:05:12;16.90;99.90
39889;DHT22;25563;50.844;4.308;2022-10-31T00:07:38;16.90;99.90
39889;DHT22;25563;50.844;4.308;2022-10-31T00:10:04;16.80;99.90
39889;DHT22;25563;50.844;4.308;2022-10-31T00:12:30;16.80;99.90
39889;DHT22;25563;50.844;4.308;2022-10-31T00:14:56;16.80;99.90
39889;DHT22;25563;50.844;4.308;2022-10-31T00:17:21;16.70;99.90
39889;DHT22;25563;50.844;4.308;2022-10-31T00:19:47;16.60;99.90
39889;DHT22;25563;50.844;4.308;2022-10-31T00:22:13;16.60;99.90
39889;DHT22;25563;50.844;4.308;2022-10-31T00:24:39;16.60;99.90
39889;DHT22;25563;50.844;4.308;2022-10-31T00:27:05;16.60;99.90
39889;DHT22;25563;50.844;4.308;2022-10-31T00:29:31;16.50;99.90
39889;DHT22;25563;50.844;4.308;2022-10-31T00:31:56;16.50;99.90
39889;DHT22;25563;50.844;4.308;2022-10-31T00:34:22;16.40;99.90
39889;DHT22;25563;50.844;4.308;2022-10-31T00:36:48;16.40;99.90
39889;DHT22;25563;50.844;4.308;2022-10-31T00:39:14;16.30;99.90
39889;DHT22;25563;50.844;4.308;2022-10-31T00:41:40;16.20;99.90
39889;DHT22;25563;50.844;4.308;2022-10-31T00:44:05;16.20;99.90
39889;DHT22;25563;50.844;4.308;2022-10-31T00:46:31;16.20;99.90
39889;DHT22;25563;50.844;4.308;2022-10-31T00:48:57;16.10;99.90
39889;DHT22;25563;50.844;4.308;2022-10-31T00:51:22;16.10;99.90
39889;DHT22;25563;50.844;4.308;2022-10-31T00:53:48;16.10;99.90
39889;DHT22;25563;50.844;4.308;2022-10-31T00:56:14;16.00;99.90
39889;DHT22;25563;50.844;4.308;2022-10-31T00:58:39;16.00;99.90
39889;DHT22;25563;50.844;4.308;2022-10-31T01:01:05;15.90;99.90
39889;DHT22;25563;50.844;4.308;2022-10-31T01:03:33;15.90;99.90
39889;DHT22;25563;50.844;4.308;2022-10-31T01:06:10;15.80;99.90
39889;DHT22;25563;50.844;4.308;2022-10-31T01:08:37;15.80;99.90
39889;DHT22;25563;50.844;4.308;2022-10-31T01:13:38;15.80;99.90
39889;DHT22;25563;50.844;4.308;2022-10-31T01:16:05;15.70;99.90
39889;DHT22;25563;50.844;4.308;2022-10-31T01:18:32;15.80;99.90
39889;DHT22;25563;50.844;4.308;2022-10-31T01:21:10;15.80;99.90
39889;DHT22;25563;50.844;4.308;2022-10-31T01:23:36;15.80;99.90
39889;DHT22;25563;50.844;4.308;2022-10-31T01:26:11;15.80;99.90
39889;DHT22;25563;50.844;4.308;2022-10-31T01:28:44;15.80;99.90
39889;DHT22;25563;50.844;4.308;2022-10-31T01:31:10;15.80;99.90
39889;DHT22;25563;50.844;4.308;2022-10-31T01:33:36;15.80;99.90
39889;DHT22;25563;50.844;4.308;2022-10-31T01:36:15;15.70;99.90
39889;DHT22;25563;50.844;4.308;2022-10-31T01:38:41;15.70;99.90
39889;DHT22;25563;50.844;4.308;2022-10-31T01:41:08;15.70;99.90
39889;DHT22;25563;50.844;4.308;2022-10-31T01:46:09;15.60;99.90
39889;DHT22;25563;50.844;4.308;2022-10-31T01:48:35;15.60;99.90
39889;DHT22;25563;50.844;4.308;2022-10-31T01:51:01;15.60;99.90
39889;DHT22;25563;50.844;4.308;2022-10-31T01:53:31;15.50;99.90
39889;DHT22;25563;50.844;4.308;2022-10-31T01:55:59;15.50;99.90
39889;DHT22;25563;50.844;4.308;2022-10-31T01:58:28;15.40;99.90
39889;DHT22;25563;50.844;4.308;2022-10-31T02:00:58;15.40;99.90
39889;DHT22;25563;50.844;4.308;2022-10-31T02:03:25;15.40;99.90
39889;DHT22;25563;50.844;4.308;2022-10-31T02:05:54;15.40;99.90
39889;DHT22;25563;50.844;4.308;2022-10-31T02:08:26;15.40;99.90
39889;DHT22;25563;50.844;4.308;2022-10-31T02:10:52;15.40;99.90
39889;DHT22;25563;50.844;4.308;2022-10-31T02:13:19;15.30;99.90
39889;DHT22;25563;50.844;4.308;2022-10-31T02:15:49;15.30;99.90
39889;DHT22;25563;50.844;4.308;2022-10-31T02:18:15;15.30;99.90
39889;DHT22;25563;50.844;4.308;2022-10-31T02:23:15;15.30;99.90
39889;DHT22;25563;50.844;4.308;2022-10-31T02:31:35;15.20;99.90
39889;DHT22;25563;50.844;4.308;2022-10-31T02:34:26;15.10;99.90
39889;DHT22;25563;50.844;4.308;2022-10-31T02:37:01;15.10;99.90
39889;DHT22;25563;50.844;4.308;2022-10-31T02:39:37;15.10;99.90
39889;DHT22;25563;50.844;4.308;2022-10-31T02:42:13;15.10;99.90
39889;DHT22;25563;50.844;4.308;2022-10-31T02:47:23;15.10;99.90
39889;DHT22;25563;50.844;4.308;2022-10-31T02:49:56;15.00;99.90
39889;DHT22;25563;50.844;4.308;2022-10-31T02:52:27;15.00;99.90
39889;DHT22;25563;50.844;4.308;2022-10-31T02:54:53;15.00;99.90
39889;DHT22;25563;50.844;4.308;2022-10-31T02:57:24;15.00;99.90
39889;DHT22;25563;50.844;4.308;2022-10-31T02:59:55;14.90;99.90
39889;DHT22;25563;50.844;4.308;2022-10-31T03:11:05;14.90;99.90
39889;DHT22;25563;50.844;4.308;2022-10-31T03:14:00;14.90;99.90
39889;DHT22;25563;50.844;4.308;2022-10-31T03:19:11;14.80;99.90
39889;DHT22;25563;50.844;4.308;2022-10-31T03:21:52;14.80;99.90
39889;DHT22;25563;50.844;4.308;2022-10-31T03:24:19;14.80;99.90
39889;DHT22;25563;50.844;4.308;2022-10-31T03:26:49;14.80;99.90
39889;DHT22;25563;50.844;4.308;2022-10-31T03:29:20;14.70;99.90
39889;DHT22;25563;50.844;4.308;2022-10-31T03:32:00;14.70;99.90
39889;DHT22;25563;50.844;4.308;2022-10-31T03:34:27;14.70;99.90
39889;DHT22;25563;50.844;4.308;2022-10-31T03:36:55;14.70;99.90
39889;DHT22;25563;50.844;4.308;2022-10-31T03:39:23;14.70;99.90
39889;DHT22;25563;50.844;4.308;2022-10-31T03:42:02;14.70;99.90
39889;DHT22;25563;50.844;4.308;2022-10-31T03:44:31;14.70;99.90
39889;DHT22;25563;50.844;4.308;2022-10-31T03:46:58;14.60;99.90
39889;DHT22;25563;50.844;4.308;2022-10-31T03:49:24;14.60;99.90
39889;DHT22;25563;50.844;4.308;2022-10-31T03:54:46;14.50;99.90
39889;DHT22;25563;50.844;4.308;2022-10-31T03:57:29;14.50;99.90
39889;DHT22;25563;50.844;4.308;2022-10-31T04:00:07;14.50;99.90
39889;DHT22;25563;50.844;4.308;2022-10-31T04:02:36;14.50;99.90
39889;DHT22;25563;50.844;4.308;2022-10-31T04:05:04;14.40;99.90
39889;DHT22;25563;50.844;4.308;2022-10-31T04:07:34;14.40;99.90
39889;DHT22;25563;50.844;4.308;2022-10-31T04:10:05;14.40;99.90
39889;DHT22;25563;50.844;4.308;2022-10-31T04:12:34;14.30;99.90
39889;DHT22;25563;50.844;4.308;2022-10-31T04:15:02;14.30;99.90
39889;DHT22;25563;50.844;4.308;2022-10-31T04:17:31;14.30;99.90
39889;DHT22;25563;50.844;4.308;2022-10-31T04:19:59;14.30;99.90
39889;DHT22;25563;50.844;4.308;2022-10-31T04:22:26;14.40;99.90
39889;DHT22;25563;50.844;4.308;2022-10-31T04:24:52;14.30;99.90
39889;DHT22;25563;50.844;4.308;2022-10-31T04:27:18;14.30;99.90
39889;DHT22;25563;50.844;4.308;2022-10-31T04:29:43;14.30;99.90
39889;DHT22;25563;50.844;4.308;2022-10-31T04:32:09;14.30;99.90
39889;DHT22;25563;50.844;4.308;2022-10-31T04:34:35;14.30;99.90
39889;DHT22;25563;50.844;4.308;2022-10-31T04:37:01;14.20;99.90
39889;DHT22;25563;50.844;4.308;2022-10-31T04:39:27;14.20;99.90
39889;DHT22;25563;50.844;4.308;2022-10-31T04:41:52;14.20;99.90
39889;DHT22;25563;50.844;4.308;2022-10-31T04:44:18;14.20;99.90
39889;DHT22;25563;50.844;4.308;2022-10-31T04:46:44;14.20;99.90
39889;DHT22;25563;50.844;4.308;2022-10-31T04:49:09;14.20;99.90
39889;DHT22;25563;50.844;4.308;2022-10-31T04:51:35;14.20;99.90
39889;DHT22;25563;50.844;4.308;2022-10-31T04:54:01;14.30;99.90
39889;DHT22;25563;50.844;4.308;2022-10-31T04:56:26;14.30;99.90
39889;DHT22;25563;50.844;4.308;2022-10-31T04:58:52;14.30;99.90
39889;DHT22;25563;50.844;4.308;2022-10-31T05:01:18;14.30;99.90
39889;DHT22;25563;50.844;4.308;2022-10-31T05:03:44;14.30;99.90
39889;DHT22;25563;50.844;4.308;2022-10-31T05:06:10;14.40;99.90
39889;DHT22;25563;50.844;4.308;2022-10-31T05:08:35;14.40;99.90
39889;DHT22;25563;50.844;4.308;2022-10-31T05:11:02;14.40;99.90
39889;DHT22;25563;50.844;4.308;2022-10-31T05:13:29;14.50;99.90
39889;DHT22;25563;50.844;4.308;2022-10-31T05:15:55;14.50;99.90
39889;DHT22;25563;50.844;4.308;2022-10-31T05:18:21;14.50;99.90
39889;DHT22;25563;50.844;4.308;2022-10-31T05:20:47;14.60;99.90
39889;DHT22;25563;50.844;4.308;2022-10-31T05:23:13;14.60;99.90
39889;DHT22;25563;50.844;4.308;2022-10-31T05:25:40;14.70;99.90
39889;DHT22;25563;50.844;4.308;2022-10-31T05:28:06;14.70;99.90
39889;DHT22;25563;50.844;4.308;2022-10-31T05:30:33;14.70;99.90
39889;DHT22;25563;50.844;4.308;2022-10-31T05:32:58;14.80;99.90
39889;DHT22;25563;50.844;4.308;2022-10-31T05:35:30;14.80;99.90
39889;DHT22;25563;50.844;4.308;2022-10-31T05:37:57;14.80;99.90
39889;DHT22;25563;50.844;4.308;2022-10-31T05:40:24;14.80;99.90
39889;DHT22;25563;50.844;4.308;2022-10-31T05:42:52;14.80;99.90
39889;DHT22;25563;50.844;4.308;2022-10-31T05:45:18;14.80;99.90
39889;DHT22;25563;50.844;4.308;2022-10-31T05:47:55;14.80;99.90
39889;DHT22;25563;50.844;4.308;2022-10-31T05:50:22;14.80;99.90
39889;DHT22;25563;50.844;4.308;2022-10-31T05:52:56;14.90;99.90
39889;DHT22;25563;50.844;4.308;2022-10-31T05:55:22;14.90;99.90
39889;DHT22;25563;50.844;4.308;2022-10-31T05:57:48;15.00;99.90
39889;DHT22;25563;50.844;4.308;2022-10-31T06:00:13;15.00;99.90
39889;DHT22;25563;50.844;4.308;2022-10-31T06:02:39;14.50;99.90
39889;DHT22;25563;50.844;4.308;2022-10-31T06:05:05;15.00;99.90
39889;DHT22;25563;50.844;4.308;2022-10-31T06:07:35;15.00;99.90
39889;DHT22;25563;50.844;4.308;2022-10-31T06:10:02;15.10;99.90
39889;DHT22;25563;50.844;4.308;2022-10-31T06:12:28;15.10;99.90
39889;DHT22;25563;50.844;4.308;2022-10-31T06:14:54;15.20;99.90
39889;DHT22;25563;50.844;4.308;2022-10-31T06:17:20;15.20;99.90
39889;DHT22;25563;50.844;4.308;2022-10-31T06:19:45;15.20;99.90
39889;DHT22;25563;50.844;4.308;2022-10-31T06:22:11;15.20;99.90
39889;DHT22;25563;50.844;4.308;2022-10-31T06:24:38;15.20;99.90
39889;DHT22;25563;50.844;4.308;2022-10-31T06:27:04;15.30;99.90
39889;DHT22;25563;50.844;4.308;2022-10-31T06:29:29;15.30;99.90
39889;DHT22;25563;50.844;4.308;2022-10-31T06:31:55;15.30;99.90
39889;DHT22;25563;50.844;4.308;2022-10-31T06:34:21;15.40;99.90
39889;DHT22;25563;50.844;4.308;2022-10-31T06:36:47;15.40;99.90
39889;DHT22;25563;50.844;4.308;2022-10-31T06:39:13;15.40;99.90
39889;DHT22;25563;50.844;4.308;2022-10-31T06:41:39;15.40;99.90
39889;DHT22;25563;50.844;4.308;2022-10-31T06:44:07;15.50;99.90
39889;DHT22;25563;50.844;4.308;2022-10-31T06:46:33;15.50;99.90
39889;DHT22;25563;50.844;4.308;2022-10-31T06:48:59;15.50;99.90
39889;DHT22;25563;50.844;4.308;2022-10-31T06:51:25;15.50;99.90
39889;DHT22;25563;50.844;4.308;2022-10-31T06:53:51;15.50;99.90
39889;DHT22;25563;50.844;4.308;2022-10-31T06:56:17;15.50;99.90
39889;DHT22;25563;50.844;4.308;2022-10-31T06:58:42;15.60;99.90
39889;DHT22;25563;50.844;4.308;2022-10-31T07:01:08;15.60;99.90
39889;DHT22;25563;50.844;4.308;2022-10-31T07:03:34;15.60;99.90
39889;DHT22;25563;50.844;4.308;2022-10-31T07:05:59;15.70;99.90
39889;DHT22;25563;50.844;4.308;2022-10-31T07:08:25;15.70;99.90
39889;DHT22;25563;50.844;4.308;2022-10-31T07:10:56;15.70;99.90
39889;DHT22;25563;50.844;4.308;2022-10-31T07:13:23;15.70;99.90
39889;DHT22;25563;50.844;4.308;2022-10-31T07:15:59;15.80;99.90
39889;DHT22;25563;50.844;4.308;2022-10-31T07:18:25;15.80;99.90
39889;DHT22;25563;50.844;4.308;2022-10-31T07:20:52;15.90;99.90
39889;DHT22;25563;50.844;4.308;2022-10-31T07:23:18;15.90;99.90
39889;DHT22;25563;50.844;4.308;2022-10-31T07:25:44;16.00;99.90
39889;DHT22;25563;50.844;4.308;2022-10-31T07:28:10;16.00;99.90
39889;DHT22;25563;50.844;4.308;2022-10-31T07:30:37;16.10;99.90
39889;DHT22;25563;50.844;4.308;2022-10-31T07:33:02;16.10;99.90
39889;DHT22;25563;50.844;4.308;2022-10-31T07:35:29;16.10;99.90
39889;DHT22;25563;50.844;4.308;2022-10-31T07:37:55;16.10;99.90
39889;DHT22;25563;50.844;4.308;2022-10-31T07:40:22;16.20;99.90
39889;DHT22;25563;50.844;4.308;2022-10-31T07:42:51;16.20;99.90
39889;DHT22;25563;50.844;4.308;2022-10-31T07:45:20;16.20;99.90
39889;DHT22;25563;50.844;4.308;2022-10-31T07:47:51;16.20;99.90
39889;DHT22;25563;50.844;4.308;2022-10-31T07:50:29;16.30;99.90
39889;DHT22;25563;50.844;4.308;2022-10-31T07:55:29;16.30;99.90
39889;DHT22;25563;50.844;4.308;2022-10-31T07:58:16;16.40;99.90
39889;DHT22;25563;50.844;4.308;2022-10-31T08:00:45;16.40;99.90
39889;DHT22;25563;50.844;4.308;2022-10-31T08:03:13;16.50;99.90
39889;DHT22;25563;50.844;4.308;2022-10-31T08:05:39;16.60;99.90
39889;DHT22;25563;50.844;4.308;2022-10-31T08:08:06;16.60;99.90
39889;DHT22;25563;50.844;4.308;2022-10-31T08:10:34;16.70;99.90
39889;DHT22;25563;50.844;4.308;2022-10-31T08:13:06;16.70;99.90
39889;DHT22;25563;50.844;4.308;2022-10-31T08:15:33;16.80;99.90
39889;DHT22;25563;50.844;4.308;2022-10-31T08:18:02;16.80;99.90
39889;DHT22;25563;50.844;4.308;2022-10-31T08:20:28;16.90;99.90
39889;DHT22;25563;50.844;4.308;2022-10-31T08:25:21;17.00;99.90
39889;DHT22;25563;50.844;4.308;2022-10-31T08:27:52;17.00;99.90
39889;DHT22;25563;50.844;4.308;2022-10-31T08:30:19;17.00;99.90
39889;DHT22;25563;50.844;4.308;2022-10-31T08:32:46;17.00;99.90
39889;DHT22;25563;50.844;4.308;2022-10-31T08:35:12;17.00;99.90
39889;DHT22;25563;50.844;4.308;2022-10-31T08:37:37;17.00;99.90
39889;DHT22;25563;50.844;4.308;2022-10-31T08:40:04;17.10;99.90
39889;DHT22;25563;50.844;4.308;2022-10-31T08:42:30;17.20;99.90
39889;DHT22;25563;50.844;4.308;2022-10-31T08:44:56;17.20;99.90
39889;DHT22;25563;50.844;4.308;2022-10-31T08:47:22;17.10;99.90
39889;DHT22;25563;50.844;4.308;2022-10-31T08:49:47;17.10;99.90
39889;DHT22;25563;50.844;4.308;2022-10-31T08:52:13;17.20;99.90
39889;DHT22;25563;50.844;4.308;2022-10-31T08:54:40;17.30;99.90
39889;DHT22;25563;50.844;4.308;2022-10-31T08:57:06;17.40;99.90
39889;DHT22;25563;50.844;4.308;2022-10-31T08:59:31;17.50;99.90
39889;DHT22;25563;50.844;4.308;2022-10-31T09:01:57;17.50;99.90
39889;DHT22;25563;50.844;4.308;2022-10-31T09:04:23;17.50;99.90
39889;DHT22;25563;50.844;4.308;2022-10-31T09:06:48;17.60;99.90
39889;DHT22;25563;50.844;4.308;2022-10-31T09:09:15;17.60;99.90
39889;DHT22;25563;50.844;4.308;2022-10-31T09:11:42;17.70;99.90
39889;DHT22;25563;50.844;4.308;2022-10-31T09:14:07;17.80;99.90
39889;DHT22;25563;50.844;4.308;2022-10-31T09:16:33;17.90;99.90
39889;DHT22;25563;50.844;4.308;2022-10-31T09:18:59;18.00;99.90
39889;DHT22;25563;50.844;4.308;2022-10-31T09:21:24;18.00;99.90
39889;DHT22;25563;50.844;4.308;2022-10-31T09:23:50;18.00;99.90
39889;DHT22;25563;50.844;4.308;2022-10-31T09:26:15;17.90;99.90
39889;DHT22;25563;50.844;4.308;2022-10-31T09:28:42;17.90;99.90
39889;DHT22;25563;50.844;4.308;2022-10-31T09:31:10;17.90;99.90
39889;DHT22;25563;50.844;4.308;2022-10-31T09:33:35;17.90;99.90
39889;DHT22;25563;50.844;4.308;2022-10-31T09:36:02;18.00;99.90
39889;DHT22;25563;50.844;4.308;2022-10-31T09:38:28;18.00;99.90
39889;DHT22;25563;50.844;4.308;2022-10-31T09:41:01;18.00;99.90
39889;DHT22;25563;50.844;4.308;2022-10-31T09:43:39;18.10;99.90
39889;DHT22;25563;50.844;4.308;2022-10-31T09:51:28;18.30;99.90
39889;DHT22;25563;50.844;4.308;2022-10-31T09:54:10;18.40;99.90
39889;DHT22;25563;50.844;4.308;2022-10-31T09:56:38;18.50;99.90
39889;DHT22;25563;50.844;4.308;2022-10-31T09:59:08;18.60;99.90
39889;DHT22;25563;50.844;4.308;2022-10-31T10:01:54;18.70;99.80
39889;DHT22;25563;50.844;4.308;2022-10-31T10:04:32;18.70;99.80
39889;DHT22;25563;50.844;4.308;2022-10-31T10:07:02;18.80;99.70
39889;DHT22;25563;50.844;4.308;2022-10-31T10:09:29;18.90;99.50
39889;DHT22;25563;50.844;4.308;2022-10-31T10:12:00;18.90;99.40
39889;DHT22;25563;50.844;4.308;2022-10-31T10:14:41;19.00;99.40
39889;DHT22;25563;50.844;4.308;2022-10-31T10:17:22;19.00;99.60
39889;DHT22;25563;50.844;4.308;2022-10-31T10:22:37;19.20;99.20
39889;DHT22;25563;50.844;4.308;2022-10-31T10:25:25;19.30;99.10
39889;DHT22;25563;50.844;4.308;2022-10-31T10:30:56;19.60;99.40
39889;DHT22;25563;50.844;4.308;2022-10-31T10:33:39;19.60;99.20
39889;DHT22;25563;50.844;4.308;2022-10-31T10:36:20;19.60;99.00
39889;DHT22;25563;50.844;4.308;2022-10-31T10:41:50;19.50;98.50
39889;DHT22;25563;50.844;4.308;2022-10-31T10:44:40;19.50;98.70
39889;DHT22;25563;50.844;4.308;2022-10-31T10:47:41;19.50;99.20
39889;DHT22;25563;50.844;4.308;2022-10-31T10:50:18;19.50;99.50
39889;DHT22;25563;50.844;4.308;2022-10-31T10:52:55;19.50;99.60
39889;DHT22;25563;50.844;4.308;2022-10-31T10:58:32;19.70;99.20
39889;DHT22;25563;50.844;4.308;2022-10-31T11:00:58;19.70;98.90
39889;DHT22;25563;50.844;4.308;2022-10-31T11:03:24;19.80;98.90
39889;DHT22;25563;50.844;4.308;2022-10-31T11:05:52;19.80;98.90
39889;DHT22;25563;50.844;4.308;2022-10-31T11:08:35;19.80;98.70
39889;DHT22;25563;50.844;4.308;2022-10-31T11:11:02;19.80;98.90
39889;DHT22;25563;50.844;4.308;2022-10-31T11:13:30;19.90;99.00
39889;DHT22;25563;50.844;4.308;2022-10-31T11:16:00;20.00;98.90
39889;DHT22;25563;50.844;4.308;2022-10-31T11:18:30;20.20;98.60
39889;DHT22;25563;50.844;4.308;2022-10-31T11:20:58;20.30;98.50
39889;DHT22;25563;50.844;4.308;2022-10-31T11:23:26;20.40;99.00
39889;DHT22;25563;50.844;4.308;2022-10-31T11:25:59;20.50;98.40
39889;DHT22;25563;50.844;4.308;2022-10-31T11:28:26;20.60;98.20
39889;DHT22;25563;50.844;4.308;2022-10-31T11:36:00;21.00;97.60
39889;DHT22;25563;50.844;4.308;2022-10-31T11:38:34;21.20;97.10
39889;DHT22;25563;50.844;4.308;2022-10-31T11:41:33;21.20;96.80
39889;DHT22;25563;50.844;4.308;2022-10-31T11:44:16;21.30;96.70
39889;DHT22;25563;50.844;4.308;2022-10-31T11:46:55;21.40;96.80
39889;DHT22;25563;50.844;4.308;2022-10-31T11:49:44;21.40;96.70
39889;DHT22;25563;50.844;4.308;2022-10-31T11:53:00;21.50;96.80
39889;DHT22;25563;50.844;4.308;2022-10-31T11:55:36;21.60;96.70
39889;DHT22;25563;50.844;4.308;2022-10-31T11:58:02;21.80;96.40
39889;DHT22;25563;50.844;4.308;2022-10-31T12:00:36;21.80;95.80
39889;DHT22;25563;50.844;4.308;2022-10-31T12:08:34;22.90;95.30
39889;DHT22;25563;50.844;4.308;2022-10-31T12:30:24;29.10;86.50
39889;DHT22;25563;50.844;4.308;2022-10-31T12:43:49;29.90;82.20
39889;DHT22;25563;50.844;4.308;2022-10-31T12:49:16;28.00;85.20
39889;DHT22;25563;50.844;4.308;2022-10-31T12:54:59;26.30;89.70
39889;DHT22;25563;50.844;4.308;2022-10-31T12:57:36;25.90;90.00
39889;DHT22;25563;50.844;4.308;2022-10-31T13:00:12;26.30;89.30
39889;DHT22;25563;50.844;4.308;2022-10-31T13:06:09;26.80;88.50
39889;DHT22;25563;50.844;4.308;2022-10-31T13:08:53;26.20;88.40
39889;DHT22;25563;50.844;4.308;2022-10-31T13:11:27;25.70;88.50
39889;DHT22;25563;50.844;4.308;2022-10-31T13:14:06;25.30;88.60
39889;DHT22;25563;50.844;4.308;2022-10-31T13:16:39;25.40;89.30
39889;DHT22;25563;50.844;4.308;2022-10-31T13:24:58;28.20;84.90
39889;DHT22;25563;50.844;4.308;2022-10-31T13:27:43;28.60;83.40
39889;DHT22;25563;50.844;4.308;2022-10-31T13:35:31;29.50;81.70
39889;DHT22;25563;50.844;4.308;2022-10-31T13:44:20;30.30;80.20
39889;DHT22;25563;50.844;4.308;2022-10-31T13:46:50;30.10;79.30
39889;DHT22;25563;50.844;4.308;2022-10-31T13:54:40;29.80;79.20
39889;DHT22;25563;50.844;4.308;2022-10-31T13:57:29;29.90;78.80
39889;DHT22;25563;50.844;4.308;2022-10-31T13:59:58;29.80;78.80
39889;DHT22;25563;50.844;4.308;2022-10-31T14:02:29;29.70;78.90
39889;DHT22;25563;50.844;4.308;2022-10-31T14:05:06;29.70;79.20
39889;DHT22;25563;50.844;4.308;2022-10-31T14:07:32;29.70;79.20
39889;DHT22;25563;50.844;4.308;2022-10-31T14:10:31;29.90;79.00
39889;DHT22;25563;50.844;4.308;2022-10-31T14:13:35;29.90;79.20
39889;DHT22;25563;50.844;4.308;2022-10-31T14:16:15;29.90;79.00
39889;DHT22;25563;50.844;4.308;2022-10-31T14:18:47;29.90;79.10
39889;DHT22;25563;50.844;4.308;2022-10-31T14:23:50;27.60;81.20
39889;DHT22;25563;50.844;4.308;2022-10-31T14:29:02;26.00;84.80
39889;DHT22;25563;50.844;4.308;2022-10-31T14:31:35;25.30;86.20
39889;DHT22;25563;50.844;4.308;2022-10-31T14:34:34;24.80;87.00
39889;DHT22;25563;50.844;4.308;2022-10-31T14:39:33;24.00;87.70
39889;DHT22;25563;50.844;4.308;2022-10-31T14:50:09;22.80;90.00
39889;DHT22;25563;50.844;4.308;2022-10-31T14:52:39;22.50;90.30
39889;DHT22;25563;50.844;4.308;2022-10-31T14:55:11;22.40;90.50
39889;DHT22;25563;50.844;4.308;2022-10-31T14:57:38;22.30;90.70
39889;DHT22;25563;50.844;4.308;2022-10-31T15:00:17;22.20;90.80
39889;DHT22;25563;50.844;4.308;2022-10-31T15:03:18;22.20;90.80
39889;DHT22;25563;50.844;4.308;2022-10-31T15:05:52;22.10;90.80
39889;DHT22;25563;50.844;4.308;2022-10-31T15:08:44;22.00;90.90
39889;DHT22;25563;50.844;4.308;2022-10-31T15:11:14;21.90;91.00
39889;DHT22;25563;50.844;4.308;2022-10-31T15:13:45;21.70;91.30
39889;DHT22;25563;50.844;4.308;2022-10-31T15:16:14;21.60;91.50
39889;DHT22;25563;50.844;4.308;2022-10-31T15:18:52;21.40;91.80
39889;DHT22;25563;50.844;4.308;2022-10-31T15:21:20;21.30;92.00
39889;DHT22;25563;50.844;4.308;2022-10-31T15:23:47;21.20;92.30
39889;DHT22;25563;50.844;4.308;2022-10-31T15:26:17;21.10;92.50
39889;DHT22;25563;50.844;4.308;2022-10-31T15:28:44;21.10;92.70
39889;DHT22;25563;50.844;4.308;2022-10-31T15:31:17;21.00;93.00
39889;DHT22;25563;50.844;4.308;2022-10-31T15:33:47;20.90;93.10
39889;DHT22;25563;50.844;4.308;2022-10-31T15:36:23;20.80;93.40
39889;DHT22;25563;50.844;4.308;2022-10-31T15:38:49;20.70;93.60
39889;DHT22;25563;50.844;4.308;2022-10-31T15:41:33;20.70;94.00
39889;DHT22;25563;50.844;4.308;2022-10-31T15:44:12;20.50;94.20
39889;DHT22;25563;50.844;4.308;2022-10-31T15:46:39;20.50;94.60
39889;DHT22;25563;50.844;4.308;2022-10-31T15:49:21;20.40;94.70
39889;DHT22;25563;50.844;4.308;2022-10-31T15:51:50;20.30;94.90
39889;DHT22;25563;50.844;4.308;2022-10-31T15:54:16;20.20;95.20
39889;DHT22;25563;50.844;4.308;2022-10-31T15:56:43;20.20;95.40
39889;DHT22;25563;50.844;4.308;2022-10-31T15:59:19;20.10;95.60
39889;DHT22;25563;50.844;4.308;2022-10-31T16:02:00;20.00;95.80
39889;DHT22;25563;50.844;4.308;2022-10-31T16:04:27;20.00;96.00
39889;DHT22;25563;50.844;4.308;2022-10-31T16:07:01;19.90;96.10
39889;DHT22;25563;50.844;4.308;2022-10-31T16:09:28;19.80;96.30
39889;DHT22;25563;50.844;4.308;2022-10-31T16:11:56;19.80;96.50
39889;DHT22;25563;50.844;4.308;2022-10-31T16:14:28;19.70;96.70
39889;DHT22;25563;50.844;4.308;2022-10-31T16:16:57;19.60;96.90
39889;DHT22;25563;50.844;4.308;2022-10-31T16:19:32;19.60;97.10
39889;DHT22;25563;50.844;4.308;2022-10-31T16:22:09;19.60;97.20
39889;DHT22;25563;50.844;4.308;2022-10-31T16:27:20;19.50;97.50
39889;DHT22;25563;50.844;4.308;2022-10-31T16:29:51;19.50;97.60
39889;DHT22;25563;50.844;4.308;2022-10-31T16:35:17;19.30;97.80
39889;DHT22;25563;50.844;4.308;2022-10-31T16:37:44;19.30;97.80
39889;DHT22;25563;50.844;4.308;2022-10-31T16:40:13;19.30;97.90
39889;DHT22;25563;50.844;4.308;2022-10-31T16:42:42;19.20;98.00
39889;DHT22;25563;50.844;4.308;2022-10-31T16:45:17;19.20;98.00
39889;DHT22;25563;50.844;4.308;2022-10-31T16:47:43;19.10;98.00
39889;DHT22;25563;50.844;4.308;2022-10-31T16:50:16;19.10;98.10
39889;DHT22;25563;50.844;4.308;2022-10-31T16:52:42;19.00;98.10
39889;DHT22;25563;50.844;4.308;2022-10-31T16:55:11;19.10;98.00
39889;DHT22;25563;50.844;4.308;2022-10-31T16:57:38;19.00;97.90
39889;DHT22;25563;50.844;4.308;2022-10-31T17:00:05;18.90;97.50
39889;DHT22;25563;50.844;4.308;2022-10-31T17:02:31;18.90;97.50
39889;DHT22;25563;50.844;4.308;2022-10-31T17:04:56;18.90;97.30
39889;DHT22;25563;50.844;4.308;2022-10-31T17:07:22;18.90;96.90
39889;DHT22;25563;50.844;4.308;2022-10-31T17:09:48;18.90;96.70
39889;DHT22;25563;50.844;4.308;2022-10-31T17:12:18;18.90;96.30
39889;DHT22;25563;50.844;4.308;2022-10-31T17:14:49;18.90;96.30
39889;DHT22;25563;50.844;4.308;2022-10-31T17:17:16;18.80;96.10
39889;DHT22;25563;50.844;4.308;2022-10-31T17:19:41;18.80;95.90
39889;DHT22;25563;50.844;4.308;2022-10-31T17:22:10;18.90;95.90
39889;DHT22;25563;50.844;4.308;2022-10-31T17:24:36;18.90;95.80
39889;DHT22;25563;50.844;4.308;2022-10-31T17:27:02;18.90;95.70
39889;DHT22;25563;50.844;4.308;2022-10-31T17:29:28;18.80;95.50
39889;DHT22;25563;50.844;4.308;2022-10-31T17:31:53;18.90;95.50
39889;DHT22;25563;50.844;4.308;2022-10-31T17:34:19;18.80;95.50
39889;DHT22;25563;50.844;4.308;2022-10-31T17:36:49;18.80;95.40
39889;DHT22;25563;50.844;4.308;2022-10-31T17:39:16;18.90;95.40
39889;DHT22;25563;50.844;4.308;2022-10-31T17:41:42;18.90;95.40
39889;DHT22;25563;50.844;4.308;2022-10-31T17:44:10;18.80;95.40
39889;DHT22;25563;50.844;4.308;2022-10-31T17:46:36;18.90;95.40
39889;DHT22;25563;50.844;4.308;2022-10-31T17:49:03;18.80;95.40
39889;DHT22;25563;50.844;4.308;2022-10-31T17:51:31;18.80;95.50
39889;DHT22;25563;50.844;4.308;2022-10-31T17:53:57;18.80;95.40
39889;DHT22;25563;50.844;4.308;2022-10-31T17:56:23;18.80;95.50
39889;DHT22;25563;50.844;4.308;2022-10-31T17:58:49;18.90;95.50
39889;DHT22;25563;50.844;4.308;2022-10-31T18:01:16;18.90;95.50
39889;DHT22;25563;50.844;4.308;2022-10-31T18:03:43;18.90;95.50
39889;DHT22;25563;50.844;4.308;2022-10-31T18:06:09;18.90;95.50
39889;DHT22;25563;50.844;4.308;2022-10-31T18:08:38;18.90;95.60
39889;DHT22;25563;50.844;4.308;2022-10-31T18:11:09;18.80;95.60
39889;DHT22;25563;50.844;4.308;2022-10-31T18:13:37;18.80;95.70